METAR Data
IDs: Format: Raw Decoded Include TAF

Data at: 0251 UTC 25 Feb 2021

LYTV 250200Z 09003KT 030V140 CAVOK 05/04 Q1030